Time;durP1;ratioP1;P1;durP2;ratioP2;P2;SDS_P1;SDS_P2;PMS_P1;PMS_P2;Temp;Humidity;BMP_temperature;BMP_pressure;BME280_temperature;BME280_humidity;BME280_pressure;Samples;Min_cycle;Max_cycle;Signal;HPM_P1;HPM_P2
2022/11/19 00:01:07;;;;;;;6.28;2.85;;;;;;;9.92;86.98;99534.25;5027885;28;20399;-74
2022/11/19 00:03:36;;;;;;;4.32;2.67;;;;;;;9.89;86.84;99540.19;5017816;28;20419;-73
2022/11/19 00:06:07;;;;;;;5.43;2.40;;;;;;;9.81;87.30;99544.19;5014651;28;20401;-73
2022/11/19 00:08:33;;;;;;;4.38;2.53;;;;;;;9.80;87.31;99531.78;5023629;28;20498;-73
2022/11/19 00:11:07;;;;;;;4.67;2.40;;;;;;;9.79;87.10;99526.59;5025334;28;20843;-73
2022/11/19 00:13:33;;;;;;;6.00;2.80;;;;;;;9.73;87.41;99527.66;5022747;28;20876;-73
2022/11/19 00:16:06;;;;;;;7.03;3.10;;;;;;;9.72;87.07;99528.72;5024271;28;20453;-73
2022/11/19 00:18:32;;;;;;;5.32;2.63;;;;;;;9.66;87.02;99527.91;5021794;28;20736;-73
2022/11/19 00:21:06;;;;;;;6.15;2.88;;;;;;;9.58;87.11;99531.06;5023502;28;20405;-73
2022/11/19 00:23:32;;;;;;;7.45;3.60;;;;;;;9.57;87.16;99525.94;5017093;28;20425;-73
2022/11/19 00:26:06;;;;;;;6.63;2.90;;;;;;;9.60;87.03;99533.53;5017271;28;20401;-73
2022/11/19 00:28:32;;;;;;;6.60;2.85;;;;;;;9.61;87.26;99532.47;5014492;28;20455;-73
2022/11/19 00:31:04;;;;;;;5.38;3.45;;;;;;;9.58;87.11;99535.69;5016492;28;20429;-73
2022/11/19 00:33:30;;;;;;;7.30;3.10;;;;;;;9.54;87.25;99540.00;5025285;28;20387;-73
2022/11/19 00:35:56;;;;;;;3.10;2.90;;;;;;;9.51;87.48;99538.63;5021905;28;20892;-73
2022/11/19 00:38:21;;;;;;;4.70;3.08;;;;;;;9.55;87.49;99541.63;5021311;28;20406;-73
2022/11/19 00:40:47;;;;;;;6.47;2.87;;;;;;;9.62;87.39;99534.91;5030071;28;20408;-73
2022/11/19 00:45:56;;;;;;;4.95;3.20;;;;;;;9.72;87.37;99539.56;5018984;28;20401;-73
2022/11/19 00:48:21;;;;;;;6.70;3.13;;;;;;;9.73;87.23;99538.47;5018599;28;20915;-73
2022/11/19 00:50:46;;;;;;;5.88;3.28;;;;;;;9.74;87.41;99540.94;5035637;28;20409;-73
2022/11/19 00:53:12;;;;;;;3.87;2.80;;;;;;;9.76;87.50;99548.78;5020175;28;20432;-73
2022/11/19 00:55:37;;;;;;;3.97;2.87;;;;;;;9.76;87.30;99548.78;5018573;28;20474;-73
2022/11/19 00:58:03;;;;;;;5.83;3.60;;;;;;;9.77;87.39;99551.25;5015383;28;20483;-73
2022/11/19 01:00:28;;;;;;;3.87;3.17;;;;;;;9.79;87.45;99546.38;5016189;28;20443;-73
2022/11/19 01:02:53;;;;;;;4.45;3.22;;;;;;;9.87;87.10;99545.06;5022133;28;20415;-73
2022/11/19 01:05:19;;;;;;;7.43;3.30;;;;;;;9.89;87.37;99551.03;5020500;28;20436;-73
2022/11/19 01:07:44;;;;;;;5.77;3.30;;;;;;;9.89;86.81;99554.53;5025090;28;20419;-73
2022/11/19 01:10:09;;;;;;;4.60;2.90;;;;;;;9.85;87.14;99545.31;5029552;28;20740;-73
2022/11/19 01:13:33;;;;;;;3.40;3.10;;;;;;;9.89;86.98;99548.31;5019240;28;20404;-73
2022/11/19 01:15:20;;;;;;;4.20;3.60;;;;;;;9.88;87.01;99549.38;5021232;28;20399;-73
2022/11/19 01:17:45;;;;;;;4.27;2.97;;;;;;;9.85;87.03;99545.31;5020435;28;20410;-73
2022/11/19 01:20:10;;;;;;;4.77;3.23;;;;;;;9.89;87.09;99548.31;5029445;28;20896;-73
2022/11/19 01:22:36;;;;;;;5.43;3.75;;;;;;;9.89;87.03;99545.59;5020850;28;20471;-73
2022/11/19 01:25:01;;;;;;;7.73;3.43;;;;;;;9.88;87.26;99557.50;5016220;28;20419;-73
2022/11/19 01:27:26;;;;;;;4.40;3.47;;;;;;;9.89;87.23;99559.13;5023530;28;20860;-73
2022/11/19 01:29:52;;;;;;;6.30;3.30;;;;;;;9.89;87.24;99559.97;5026523;28;20410;-73
2022/11/19 01:32:17;;;;;;;4.53;3.20;;;;;;;9.84;87.48;99554.53;5019029;28;20454;-73
2022/11/19 01:34:42;;;;;;;3.33;3.10;;;;;;;9.87;87.36;99559.41;5027091;28;20892;-73
2022/11/19 01:37:07;;;;;;;6.70;2.90;;;;;;;9.87;87.46;99555.91;5025988;28;20422;-73
2022/11/19 01:39:33;;;;;;;6.93;3.60;;;;;;;9.87;87.19;99551.31;5024132;28;20620;-73
2022/11/19 01:41:58;;;;;;;4.67;3.73;;;;;;;9.86;87.03;99554.25;5024367;28;20476;-73
2022/11/19 01:44:57;;;;;;;4.47;3.57;;;;;;;9.83;87.40;99552.91;5026603;28;20554;-74
2022/11/19 01:47:23;;;;;;;10.05;3.85;;;;;;;9.84;87.26;99551.00;5023987;28;20443;-73
2022/11/19 01:49:48;;;;;;;6.23;3.30;;;;;;;9.84;87.39;99551.81;5022808;28;20448;-73
2022/11/19 01:52:13;;;;;;;5.37;3.10;;;;;;;9.83;87.41;99547.47;5026129;28;20415;-73
2022/11/19 01:54:44;;;;;;;7.17;3.40;;;;;;;9.85;87.49;99550.72;5018394;28;20411;-74
2022/11/19 01:57:14;;;;;;;7.32;3.33;;;;;;;9.85;87.35;99549.91;5024814;28;20411;-73
2022/11/19 01:59:41;;;;;;;5.80;3.00;;;;;;;9.83;87.15;99554.78;5029988;28;20953;-74
2022/11/19 02:02:06;;;;;;;4.88;3.35;;;;;;;9.81;87.34;99563.16;5016411;28;20405;-74
2022/11/19 02:04:34;;;;;;;4.97;3.20;;;;;;;9.85;87.46;99560.72;5025696;28;20407;-74
2022/11/19 02:07:00;;;;;;;7.80;3.15;;;;;;;9.86;87.22;99560.50;5021163;28;20477;-73
2022/11/19 02:09:27;;;;;;;5.25;3.60;;;;;;;9.84;87.12;99562.66;5026410;28;20486;-74
2022/11/19 02:11:58;;;;;;;6.97;3.58;;;;;;;9.83;87.42;99555.59;5024244;28;20910;-74
2022/11/19 02:14:38;;;;;;;5.70;3.28;;;;;;;9.82;87.57;99553.97;5022032;28;20411;-74
2022/11/19 02:17:15;;;;;;;6.60;3.60;;;;;;;9.81;87.82;99557.72;5017476;28;20408;-73
2022/11/19 02:20:13;;;;;;;7.67;4.07;;;;;;;9.82;87.62;99556.66;5015920;28;20507;-73
2022/11/19 02:22:53;;;;;;;4.37;3.93;;;;;;;9.85;87.57;99555.31;5036627;28;20406;-73
2022/11/19 02:25:33;;;;;;;7.07;3.80;;;;;;;9.87;87.39;99550.47;5020793;28;20440;-73
2022/11/19 02:28:36;;;;;;;7.90;3.90;;;;;;;9.85;87.56;99550.72;5050701;28;20480;-73
2022/11/19 02:31:19;;;;;;;5.40;3.40;;;;;;;9.84;87.49;99548.31;5024756;28;20414;-73
2022/11/19 02:34:04;;;;;;;10.50;5.45;;;;;;;9.82;87.82;99548.56;5018515;28;20409;-73
2022/11/19 02:36:56;;;;;;;4.30;3.70;;;;;;;9.81;87.47;99546.13;5015322;28;20875;-73
2022/11/19 02:39:37;;;;;;;7.68;3.80;;;;;;;9.78;87.70;99543.94;5028185;28;20401;-73
2022/11/19 02:42:16;;;;;;;4.87;2.83;;;;;;;9.76;87.94;99548.78;5017593;28;20460;-73
2022/11/19 02:44:58;;;;;;;7.30;3.27;;;;;;;9.77;87.83;99550.41;5024928;28;20476;-74
2022/11/19 02:47:50;;;;;;;7.87;3.40;;;;;;;9.79;87.59;99553.66;5019043;28;20926;-74
2022/11/19 02:50:32;;;;;;;4.45;3.50;;;;;;;9.76;87.97;99546.91;5021699;28;20399;-73
2022/11/19 02:52:58;;;;;;;5.55;3.33;;;;;;;9.74;88.29;99559.88;5027208;28;20483;-74
2022/11/19 02:55:23;;;;;;;4.37;3.63;;;;;;;9.80;87.63;99566.13;5022483;28;20518;-74
2022/11/19 03:04:28;;;;;;;5.07;3.50;;;;;;;9.80;87.84;99566.94;5018463;28;20410;-73
2022/11/19 03:06:28;;;;;;;16.50;8.68;;;;;;;9.80;88.13;99566.13;5017403;28;20462;-73
2022/11/19 03:08:53;;;;;;;9.82;5.78;;;;;;;9.81;87.85;99568.56;5014318;28;20764;-74
2022/11/19 03:11:25;;;;;;;30.60;15.17;;;;;;;9.83;87.89;99571.84;5018273;28;20755;-73
2022/11/19 03:17:22;;;;;;;7.33;5.30;;;;;;;9.81;87.84;99573.19;5018452;28;20751;-73
2022/11/19 03:20:03;;;;;;;5.68;4.10;;;;;;;9.78;87.71;99569.09;5020181;28;20449;-73
2022/11/19 03:22:40;;;;;;;4.57;3.08;;;;;;;9.76;88.00;99567.72;5018635;28;20760;-73
2022/11/19 03:25:18;;;;;;;4.85;3.50;;;;;;;9.78;87.89;99571.78;5020749;28;20415;-73
2022/11/19 03:27:48;;;;;;;6.23;3.30;;;;;;;9.76;87.86;99573.94;5020860;28;20411;-73
2022/11/19 03:30:14;;;;;;;5.45;3.50;;;;;;;9.74;88.12;99572.59;5021808;28;20486;-73
2022/11/19 03:32:46;;;;;;;7.97;4.60;;;;;;;9.74;88.11;99576.13;5024316;28;20700;-74
2022/11/19 03:35:16;;;;;;;7.22;4.05;;;;;;;9.72;88.17;99572.84;5017349;28;20501;-73
2022/11/19 03:37:44;;;;;;;11.95;5.07;;;;;;;9.71;88.25;99579.34;5020303;28;20432;-74
2022/11/19 03:40:14;;;;;;;7.73;4.50;;;;;;;9.73;88.24;99574.47;5022838;28;20530;-73
2022/11/19 03:42:41;;;;;;;5.95;4.88;;;;;;;9.71;88.45;99582.06;5017368;28;20452;-73
2022/11/19 03:45:19;;;;;;;5.35;3.95;;;;;;;9.76;88.58;99576.66;5026082;28;20403;-74
2022/11/19 03:47:48;;;;;;;8.95;4.53;;;;;;;9.77;88.25;99583.72;5023536;28;20680;-73
2022/11/19 03:50:43;;;;;;;7.00;4.63;;;;;;;9.81;88.34;99581.28;5020689;28;20819;-73
2022/11/19 03:53:08;;;;;;;7.28;3.72;;;;;;;9.81;88.25;99589.41;5020680;28;20400;-74
2022/11/19 03:55:41;;;;;;;6.23;4.10;;;;;;;9.82;88.39;99578.31;5023010;28;20410;-73
2022/11/19 03:58:09;;;;;;;6.75;4.00;;;;;;;9.81;88.46;99584.00;5023343;28;20403;-74
2022/11/19 04:00:35;;;;;;;5.90;4.90;;;;;;;9.86;88.14;99576.72;5017431;28;20430;-73
2022/11/19 04:03:00;;;;;;;9.30;4.80;;;;;;;9.88;87.94;99573.75;5030053;28;20427;-73
2022/11/19 04:05:25;;;;;;;5.40;3.90;;;;;;;9.83;88.03;99577.25;5014490;28;20427;-73
2022/11/19 04:07:51;;;;;;;7.00;4.20;;;;;;;9.77;88.22;99574.78;5013971;28;20759;-73
2022/11/19 04:10:16;;;;;;;10.60;4.57;;;;;;;9.76;88.45;99586.66;5030090;28;20403;-73
2022/11/19 04:12:41;;;;;;;8.70;4.13;;;;;;;9.80;88.84;99579.66;5030369;28;20434;-73
2022/11/19 04:15:12;;;;;;;6.83;4.13;;;;;;;9.82;88.27;99580.19;5019085;28;20424;-73
2022/11/19 04:17:38;;;;;;;6.47;4.40;;;;;;;9.83;87.89;99581.84;5023024;28;20450;-73
2022/11/19 04:20:05;;;;;;;9.43;4.33;;;;;;;9.81;88.07;99576.69;5022182;28;20782;-74
2022/11/19 04:22:30;;;;;;;9.20;4.63;;;;;;;9.78;88.33;99576.41;5027651;28;20764;-73
2022/11/19 04:24:55;;;;;;;6.57;4.40;;;;;;;9.77;88.36;99575.59;5023100;28;20415;-73
2022/11/19 04:27:21;;;;;;;8.38;5.03;;;;;;;9.74;88.40;99584.22;5024898;28;20423;-74
2022/11/19 04:29:46;;;;;;;8.40;4.77;;;;;;;9.72;88.57;99588.25;5022696;28;20389;-73
2022/11/19 04:32:11;;;;;;;6.23;4.70;;;;;;;9.71;88.50;99581.22;5027462;28;20859;-73
2022/11/19 04:34:36;;;;;;;9.80;4.90;;;;;;;9.75;88.36;99588.53;5030593;28;20387;-73
2022/11/19 04:37:02;;;;;;;5.57;5.00;;;;;;;9.76;88.21;99582.06;5034594;28;20390;-73
2022/11/19 04:39:27;;;;;;;7.57;4.90;;;;;;;9.77;88.15;99588.31;5028729;28;20405;-73
2022/11/19 04:41:52;;;;;;;7.17;5.27;;;;;;;9.78;88.09;99595.34;5034541;28;20394;-74
2022/11/19 04:44:17;;;;;;;11.40;5.00;;;;;;;9.75;88.11;99587.72;5034276;28;20415;-73
2022/11/19 04:46:43;;;;;;;5.97;4.67;;;;;;;9.76;88.24;99597.47;5025343;28;20387;-73
2022/11/19 04:49:08;;;;;;;7.13;5.20;;;;;;;9.74;88.07;99595.06;5029471;28;20862;-73
2022/11/19 04:51:33;;;;;;;6.20;4.83;;;;;;;9.71;88.29;99592.88;5034338;28;20469;-73
2022/11/19 04:53:59;;;;;;;8.07;5.30;;;;;;;9.69;88.32;99597.72;5026181;28;20766;-73
2022/11/19 04:56:24;;;;;;;9.70;5.00;;;;;;;9.70;88.46;99599.34;5020155;28;20471;-74
2022/11/19 04:58:49;;;;;;;12.13;5.90;;;;;;;9.75;88.14;99598.56;5026663;28;20423;-73
2022/11/19 05:01:14;;;;;;;7.73;5.33;;;;;;;9.72;88.17;99593.66;5019069;28;20421;-74
2022/11/19 05:03:40;;;;;;;6.83;5.00;;;;;;;9.72;88.37;99597.19;5019300;28;20496;-73
2022/11/19 05:06:05;;;;;;;6.57;5.60;;;;;;;9.70;88.21;99591.22;5019836;28;20405;-73
2022/11/19 05:08:30;;;;;;;8.38;5.18;;;;;;;9.69;88.11;99599.59;5019674;28;20437;-73
2022/11/19 05:10:56;;;;;;;6.07;4.80;;;;;;;9.66;88.26;99595.53;5026268;28;20422;-73
2022/11/19 05:13:21;;;;;;;6.63;5.20;;;;;;;9.67;88.49;99597.16;5030004;28;20485;-74
2022/11/19 05:15:46;;;;;;;9.83;5.30;;;;;;;9.65;88.30;99602.00;5027381;28;20405;-74
2022/11/19 05:18:12;;;;;;;7.10;4.97;;;;;;;9.60;88.53;99596.56;5026815;28;20853;-73
2022/11/19 05:20:38;;;;;;;6.45;5.10;;;;;;;9.64;88.50;99600.38;5018857;28;20413;-73
2022/11/19 05:23:03;;;;;;;10.30;5.63;;;;;;;9.58;88.44;99600.63;5027095;28;20870;-73
2022/11/19 05:25:29;;;;;;;6.27;5.30;;;;;;;9.58;88.66;99604.09;5023347;28;20462;-73
2022/11/19 05:27:54;;;;;;;7.70;5.22;;;;;;;9.62;88.59;99609.81;5017047;28;20420;-73
2022/11/19 05:30:19;;;;;;;9.17;5.10;;;;;;;9.62;88.57;99610.63;5028600;28;20415;-73
2022/11/19 05:32:46;;;;;;;6.20;4.90;;;;;;;9.67;88.37;99612.56;5020268;28;20873;-73
2022/11/19 05:35:11;;;;;;;12.00;5.55;;;;;;;9.71;88.38;99614.53;5021198;28;20425;-73
2022/11/19 05:37:36;;;;;;;8.70;5.10;;;;;;;9.71;88.10;99619.94;5028803;28;20398;-74
2022/11/19 05:40:02;;;;;;;9.07;4.70;;;;;;;9.71;88.25;99619.09;5017948;28;20409;-73
2022/11/19 05:42:27;;;;;;;8.02;4.65;;;;;;;9.71;88.48;99617.22;5023372;28;20419;-74
2022/11/19 05:44:53;;;;;;;6.77;4.50;;;;;;;9.71;88.27;99602.88;5016869;28;20433;-73
2022/11/19 05:47:18;;;;;;;5.60;5.00;;;;;;;9.68;88.29;99616.91;5022997;28;20407;-73
2022/11/19 05:49:43;;;;;;;5.13;4.63;;;;;;;9.69;88.50;99618.53;5021785;28;20416;-73
2022/11/19 05:52:09;;;;;;;4.93;4.50;;;;;;;9.70;88.53;99622.88;5028614;28;20403;-73
2022/11/19 05:54:35;;;;;;;5.95;5.05;;;;;;;9.66;88.46;99627.16;5020717;28;20510;-73
2022/11/19 05:57:00;;;;;;;8.30;6.53;;;;;;;9.68;88.42;99623.13;5027246;28;20494;-74
2022/11/19 05:59:25;;;;;;;8.80;5.60;;;;;;;9.74;88.30;99624.00;5027129;28;20435;-73
2022/11/19 06:01:51;;;;;;;8.40;5.77;;;;;;;9.73;88.39;99628.59;5022875;28;20904;-73
2022/11/19 06:04:16;;;;;;;9.43;6.30;;;;;;;9.75;88.20;99628.31;5027049;28;20450;-73
2022/11/19 06:06:42;;;;;;;9.00;6.40;;;;;;;9.72;88.33;99626.94;5030286;28;20854;-73
2022/11/19 06:09:07;;;;;;;7.47;5.97;;;;;;;9.76;88.34;99633.47;5032855;28;20464;-73
2022/11/19 06:11:49;;;;;;;6.38;5.30;;;;;;;9.74;88.50;99632.94;5028560;28;20400;-74
2022/11/19 06:14:20;;;;;;;9.65;5.47;;;;;;;9.76;88.33;99624.53;5025443;28;20525;-74
2022/11/19 06:16:47;;;;;;;7.95;5.40;;;;;;;9.73;88.14;99625.06;5025141;28;20431;-73
2022/11/19 06:19:12;;;;;;;5.32;4.60;;;;;;;9.69;88.25;99626.66;5024396;28;20400;-73
2022/11/19 06:21:37;;;;;;;7.80;5.45;;;;;;;9.71;88.41;99629.94;5021572;28;20459;-73
2022/11/19 06:24:03;;;;;;;6.47;4.40;;;;;;;9.71;88.29;99633.44;5024872;28;20863;-73
2022/11/19 06:26:28;;;;;;;6.80;4.80;;;;;;;9.71;88.09;99632.63;5027374;28;20394;-74
2022/11/19 06:28:54;;;;;;;5.80;4.63;;;;;;;9.67;88.28;99637.75;5028941;28;20411;-73
2022/11/19 06:31:21;;;;;;;5.70;5.13;;;;;;;9.65;88.62;99636.38;5031178;28;20436;-74
2022/11/19 06:33:46;;;;;;;6.37;4.97;;;;;;;9.68;88.21;99633.16;5032478;28;20471;-73
2022/11/19 06:36:12;;;;;;;10.17;4.80;;;;;;;9.68;88.39;99627.75;5020535;28;20407;-73
2022/11/19 06:38:38;;;;;;;8.80;5.25;;;;;;;9.69;88.12;99635.59;5028056;28;20482;-73
2022/11/19 06:41:03;;;;;;;8.53;4.80;;;;;;;9.65;88.23;99634.47;5024409;28;20494;-73
2022/11/19 06:43:29;;;;;;;8.83;6.20;;;;;;;9.62;88.37;99642.28;5061863;28;20500;-74
2022/11/19 06:45:54;;;;;;;11.73;5.67;;;;;;;9.66;88.35;99649.63;5032354;28;20410;-73
2022/11/19 06:48:19;;;;;;;6.20;5.20;;;;;;;9.69;88.31;99654.53;5026880;28;20917;-73
2022/11/19 06:50:45;;;;;;;9.80;5.40;;;;;;;9.70;88.00;99655.34;5028854;28;20422;-73
2022/11/19 06:53:10;;;;;;;8.07;6.27;;;;;;;9.69;88.24;99659.13;5023473;28;20566;-74
2022/11/19 06:55:35;;;;;;;8.63;5.67;;;;;;;9.71;87.99;99654.28;5027745;28;20874;-73
2022/11/19 06:58:05;;;;;;;9.93;5.60;;;;;;;9.71;88.28;99665.09;5030034;28;20426;-74
2022/11/19 07:00:31;;;;;;;8.15;5.88;;;;;;;9.72;88.22;99661.31;5026902;28;20472;-73
2022/11/19 07:02:57;;;;;;;8.95;6.32;;;;;;;9.72;87.87;99656.72;5027739;28;20410;-74
2022/11/19 07:05:22;;;;;;;9.23;6.77;;;;;;;9.67;88.15;99669.38;5019807;28;20383;-73
2022/11/19 07:07:47;;;;;;;8.97;6.73;;;;;;;9.62;88.71;99664.75;5031548;28;20415;-73
2022/11/19 07:10:13;;;;;;;8.40;7.10;;;;;;;9.67;88.52;99669.38;5026998;28;20403;-73
2022/11/19 07:12:38;;;;;;;11.10;6.65;;;;;;;9.72;88.22;99672.13;5020904;28;20424;-73
2022/11/19 07:15:04;;;;;;;11.73;7.27;;;;;;;9.74;88.45;99681.63;5030404;28;20546;-73
2022/11/19 07:17:29;;;;;;;11.60;7.55;;;;;;;9.75;88.16;99675.13;5031564;28;20398;-73
2022/11/19 07:19:55;;;;;;;10.85;6.93;;;;;;;9.75;88.34;99679.72;5030659;28;20486;-73
2022/11/19 07:22:20;;;;;;;8.47;6.37;;;;;;;9.77;88.25;99683.81;5026103;28;20398;-74
2022/11/19 07:24:45;;;;;;;9.30;6.07;;;;;;;9.79;88.23;99680.84;5031582;28;20391;-73
2022/11/19 07:27:10;;;;;;;8.00;5.90;;;;;;;9.81;88.18;99686.84;5031612;28;20763;-73
2022/11/19 07:29:37;;;;;;;7.73;6.63;;;;;;;9.76;88.13;99687.59;5028476;28;20823;-72
2022/11/19 07:32:04;;;;;;;9.57;6.50;;;;;;;9.77;88.29;99691.13;5030690;28;20419;-74
2022/11/19 07:34:29;;;;;;;7.63;5.77;;;;;;;9.79;88.22;99688.97;5030833;28;20446;-74
2022/11/19 07:36:54;;;;;;;9.90;5.80;;;;;;;9.80;88.32;99690.59;5031408;28;20833;-73
2022/11/19 07:39:19;;;;;;;8.17;6.10;;;;;;;9.80;88.05;99696.84;5025932;28;20411;-74
2022/11/19 07:44:29;;;;;;;9.60;5.88;;;;;;;9.80;88.11;99694.13;5023790;28;20422;-73
2022/11/19 07:46:54;;;;;;;6.87;5.43;;;;;;;9.84;88.29;99692.53;5035496;28;20382;-73
2022/11/19 07:49:19;;;;;;;9.40;5.30;;;;;;;9.84;88.36;99699.84;5031072;28;20391;-73
2022/11/19 07:51:44;;;;;;;6.43;5.30;;;;;;;9.85;88.20;99699.56;5035556;28;20399;-73
2022/11/19 07:54:11;;;;;;;6.37;5.50;;;;;;;9.85;88.27;99704.16;5018851;28;20910;-73
2022/11/19 07:56:36;;;;;;;7.47;5.47;;;;;;;9.86;88.13;99703.09;5024605;28;20399;-73
2022/11/19 07:59:02;;;;;;;8.93;5.27;;;;;;;9.87;88.21;99700.16;5026715;28;20793;-73
2022/11/19 08:01:33;;;;;;;8.23;4.83;;;;;;;9.90;88.13;99702.31;5026558;28;20491;-74
2022/11/19 08:03:59;;;;;;;6.85;4.65;;;;;;;9.97;88.05;99702.13;5024137;28;20433;-73
2022/11/19 08:06:27;;;;;;;7.63;4.90;;;;;;;10.01;87.83;99699.69;5026035;28;20395;-73
2022/11/19 08:08:54;;;;;;;7.78;4.68;;;;;;;10.06;87.60;99705.97;5021851;28;20431;-73
2022/11/19 08:11:20;;;;;;;11.63;6.35;;;;;;;10.10;87.48;99708.97;5022923;28;20424;-73
2022/11/19 08:13:45;;;;;;;11.57;5.80;;;;;;;10.07;87.66;99709.50;5020231;28;20411;-73
2022/11/19 08:18:10;;;;;;;10.23;5.05;;;;;;;10.01;87.78;99715.94;5019102;28;21389;-73
2022/11/19 08:18:58;;;;;;;4.32;3.70;;;;;;;9.97;87.88;99726.47;5023228;28;20436;-73
2022/11/19 08:21:23;;;;;;;5.85;4.25;;;;;;;9.98;87.75;99721.88;5025025;28;20397;-74
2022/11/19 08:23:48;;;;;;;8.03;4.20;;;;;;;9.95;87.61;99725.06;5024928;28;20411;-73
2022/11/19 08:26:14;;;;;;;4.65;3.78;;;;;;;9.99;87.63;99729.72;5029085;28;20508;-74
2022/11/19 08:28:39;;;;;;;7.47;4.00;;;;;;;10.02;87.61;99726.50;5025088;28;20424;-73
2022/11/19 08:31:08;;;;;;;5.33;3.80;;;;;;;10.00;87.49;99727.84;5030040;28;20490;-73
2022/11/19 08:33:34;;;;;;;8.27;3.88;;;;;;;10.05;87.18;99725.16;5033389;28;20617;-73
2022/11/19 08:35:59;;;;;;;6.03;3.40;;;;;;;9.99;87.21;99727.03;5034666;28;20902;-73
2022/11/19 08:38:28;;;;;;;6.83;3.83;;;;;;;10.03;87.33;99730.03;5034865;28;20496;-73
2022/11/19 08:42:58;;;;;;;10.60;4.10;;;;;;;10.09;86.91;99734.41;5034465;28;20394;-73
2022/11/19 08:43:39;;;;;;;7.38;4.25;;;;;;;10.12;86.92;99732.00;5024534;28;20801;-73
2022/11/19 08:46:05;;;;;;;7.57;4.13;;;;;;;10.10;87.09;99738.75;5026717;28;20397;-74
2022/11/19 08:48:31;;;;;;;7.70;4.40;;;;;;;10.14;86.94;99740.69;5028500;28;20414;-73
2022/11/19 08:50:57;;;;;;;5.78;4.90;;;;;;;10.15;86.94;99738.81;5024665;28;20391;-73
2022/11/19 08:53:22;;;;;;;9.47;4.70;;;;;;;10.18;86.79;99738.28;5034282;28;20809;-73
2022/11/19 08:55:50;;;;;;;6.37;4.80;;;;;;;10.13;86.99;99744.47;5034023;28;20391;-73
2022/11/19 08:58:15;;;;;;;11.30;4.87;;;;;;;10.11;87.05;99749.31;5033043;28;20923;-73
2022/11/19 09:00:42;;;;;;;7.53;3.93;;;;;;;10.11;86.81;99738.47;5044892;28;20784;-73
2022/11/19 09:03:07;;;;;;;6.10;3.83;;;;;;;10.10;86.97;99739.56;5031490;28;20379;-73
2022/11/19 09:05:33;;;;;;;7.07;4.43;;;;;;;10.12;87.10;99734.69;5034138;28;20390;-73
2022/11/19 09:07:58;;;;;;;5.53;3.38;;;;;;;10.12;86.82;99732.00;5025764;28;20405;-73
2022/11/19 09:10:24;;;;;;;7.40;5.20;;;;;;;10.19;86.89;99737.22;5023344;28;20946;-73
2022/11/19 09:12:50;;;;;;;7.43;4.43;;;;;;;10.29;86.30;99735.41;5034150;28;20387;-73
2022/11/19 09:15:15;;;;;;;8.85;4.15;;;;;;;10.32;86.26;99742.19;5032992;28;20383;-73
2022/11/19 09:17:41;;;;;;;8.93;4.90;;;;;;;10.37;86.13;99736.81;5032554;28;20406;-73
2022/11/19 09:20:06;;;;;;;11.47;5.23;;;;;;;10.39;86.09;99737.38;5021475;28;20446;-73
2022/11/19 09:22:32;;;;;;;8.05;4.53;;;;;;;10.41;85.95;99743.31;5017488;28;20454;-73
2022/11/19 09:24:57;;;;;;;7.63;3.80;;;;;;;10.34;85.93;99754.38;5028154;28;20549;-73
2022/11/19 09:27:23;;;;;;;5.97;4.03;;;;;;;10.31;86.11;99749.50;5033533;28;20435;-73
2022/11/19 09:29:48;;;;;;;9.50;4.77;;;;;;;10.34;85.96;99748.97;5032206;28;20407;-73
2022/11/19 09:32:14;;;;;;;5.97;3.80;;;;;;;10.37;85.94;99753.84;5028229;28;20493;-73
2022/11/19 09:34:40;;;;;;;7.37;4.20;;;;;;;10.38;85.90;99752.78;5025616;28;20447;-73
2022/11/19 09:37:07;;;;;;;4.40;3.85;;;;;;;10.34;86.11;99750.88;5028140;28;20403;-73
2022/11/19 09:39:32;;;;;;;6.68;3.88;;;;;;;10.38;86.35;99760.91;5032588;28;20813;-73
2022/11/19 09:42:33;;;;;;;5.37;4.43;;;;;;;10.44;86.03;99759.06;5033361;28;20401;-74
2022/11/19 09:45:04;;;;;;;9.25;4.53;;;;;;;10.40;86.08;99768.78;5053240;28;20437;-73
2022/11/19 09:47:29;;;;;;;5.40;4.15;;;;;;;10.40;86.15;99768.78;5027055;28;20413;-73
2022/11/19 09:50:13;;;;;;;10.83;4.73;;;;;;;10.36;86.00;99771.22;5026635;28;20976;-73
2022/11/19 09:52:47;;;;;;;3.88;2.60;;;;;;;10.34;85.98;99781.47;5034071;28;20438;-74
2022/11/19 09:55:33;;;;;;;3.90;2.60;;;;;;;10.25;85.38;99783.03;5019188;28;20448;-73
2022/11/19 09:58:01;;;;;;;3.75;2.50;;;;;;;10.25;85.32;99784.91;5038056;28;20462;-73
2022/11/19 10:00:29;;;;;;;6.68;3.10;;;;;;;10.22;85.04;99780.84;5030199;28;20437;-73
2022/11/19 10:02:57;;;;;;;8.63;2.75;;;;;;;10.22;84.84;99774.59;5023875;28;20389;-73
2022/11/19 10:05:41;;;;;;;5.13;2.63;;;;;;;10.23;84.92;99784.38;5024947;28;20405;-73
2022/11/19 10:08:41;;;;;;;3.30;2.72;;;;;;;10.23;84.70;99785.19;5019909;28;20447;-73
2022/11/19 10:11:34;;;;;;;3.20;2.30;;;;;;;10.18;84.58;99792.44;5017395;28;20433;-73
2022/11/19 10:14:18;;;;;;;7.45;3.10;;;;;;;10.12;84.72;99786.13;5018060;28;20399;-73
2022/11/19 10:16:56;;;;;;;2.42;1.90;;;;;;;10.14;84.46;99783.22;5025717;28;20387;-74
2022/11/19 10:19:30;;;;;;;2.42;2.20;;;;;;;10.13;84.57;99779.66;5020518;28;20432;-73
2022/11/19 10:22:07;;;;;;;4.78;2.00;;;;;;;10.18;84.54;99790.53;5021189;28;20862;-74
2022/11/19 10:24:35;;;;;;;4.55;1.98;;;;;;;10.18;84.47;99779.72;5025508;28;20399;-73
2022/11/19 10:27:11;;;;;;;4.35;2.28;;;;;;;10.23;84.56;99770.81;5027135;28;20831;-74
2022/11/19 10:29:39;;;;;;;4.82;2.10;;;;;;;10.23;84.67;99766.25;5037795;28;20508;-73
2022/11/19 10:32:18;;;;;;;3.58;2.40;;;;;;;10.20;84.59;99763.22;5019984;28;20435;-73
2022/11/19 10:34:45;;;;;;;2.95;2.15;;;;;;;10.20;84.89;99768.66;5025829;28;20395;-72
2022/11/19 10:37:15;;;;;;;6.10;2.30;;;;;;;10.18;85.18;99770.78;5029584;28;20750;-73
2022/11/19 10:39:43;;;;;;;6.93;2.53;;;;;;;10.19;85.23;99767.00;5026503;28;20470;-73
2022/11/19 10:42:20;;;;;;;6.10;2.50;;;;;;;10.22;84.90;99758.34;5018785;28;20419;-74
2022/11/19 10:44:54;;;;;;;3.92;2.30;;;;;;;10.26;84.99;99771.13;5022305;28;20919;-74
2022/11/19 10:47:27;;;;;;;4.88;2.10;;;;;;;10.29;84.96;99762.47;5026163;28;20418;-74
2022/11/19 10:49:53;;;;;;;2.40;2.17;;;;;;;10.33;84.65;99768.19;5024595;28;20731;-73
2022/11/19 10:52:25;;;;;;;4.35;2.50;;;;;;;10.29;84.77;99769.78;5018776;28;20389;-73
2022/11/19 10:54:54;;;;;;;6.07;3.35;;;;;;;10.27;84.59;99764.63;5027585;28;20414;-74
2022/11/19 10:57:20;;;;;;;5.13;2.60;;;;;;;10.27;84.92;99763.81;5029588;28;20422;-73
2022/11/19 10:59:48;;;;;;;5.10;2.30;;;;;;;10.23;84.93;99768.13;5021340;28;20490;-73
2022/11/19 11:02:30;;;;;;;5.60;2.40;;;;;;;10.21;84.67;99762.13;5017732;28;20399;-73
2022/11/19 11:05:09;;;;;;;4.50;2.50;;;;;;;10.29;84.70;99758.97;5027538;28;20393;-73
2022/11/19 11:08:10;;;;;;;3.97;2.33;;;;;;;10.29;84.55;99765.19;5027589;28;20410;-73
2022/11/19 11:10:41;;;;;;;5.15;2.45;;;;;;;10.32;84.74;99771.97;5018932;28;20391;-74
2022/11/19 11:16:09;;;;;;;6.63;3.08;;;;;;;10.34;84.89;99765.22;5024755;28;20425;-76
2022/11/19 11:18:39;;;;;;;4.72;2.20;;;;;;;10.35;84.39;99758.72;5024417;28;20428;-74
2022/11/19 11:21:09;;;;;;;4.38;2.75;;;;;;;10.41;84.18;99759.56;5025948;28;20395;-74
2022/11/19 11:23:47;;;;;;;7.30;2.95;;;;;;;10.43;84.33;99762.03;5023297;28;20410;-73
2022/11/19 11:26:18;;;;;;;4.63;2.83;;;;;;;10.40;84.21;99753.38;5017609;28;20880;-74
2022/11/19 11:29:13;;;;;;;5.55;2.83;;;;;;;10.39;83.94;99753.63;5023501;28;20428;-74
2022/11/19 11:31:45;;;;;;;3.95;2.67;;;;;;;10.43;83.74;99757.44;5016106;28;20421;-74
2022/11/19 11:34:27;;;;;;;9.13;2.97;;;;;;;10.43;83.80;99756.63;5056234;28;20790;-73
2022/11/19 11:36:54;;;;;;;6.47;2.50;;;;;;;10.38;83.51;99760.09;5020709;28;20813;-73
2022/11/19 11:39:33;;;;;;;2.90;2.50;;;;;;;10.40;83.32;99763.38;5019243;28;20416;-73
2022/11/19 11:42:00;;;;;;;2.75;1.88;;;;;;;10.42;83.39;99755.78;5020172;28;20856;-74
2022/11/19 11:44:31;;;;;;;4.93;2.30;;;;;;;10.40;83.21;99760.66;5020174;28;20417;-73
2022/11/19 11:47:03;;;;;;;4.57;2.20;;;;;;;10.39;83.20;99753.63;5019097;28;20411;-73
2022/11/19 11:49:35;;;;;;;4.78;2.47;;;;;;;10.44;83.24;99755.56;5021181;28;20409;-73
2022/11/19 11:52:09;;;;;;;5.43;2.40;;;;;;;10.47;83.27;99750.44;5049886;28;20401;-73
2022/11/19 11:54:37;;;;;;;4.95;2.40;;;;;;;10.51;83.17;99756.13;5019971;28;20833;-73
2022/11/19 11:57:20;;;;;;;4.63;2.30;;;;;;;10.47;83.22;99757.72;5026223;28;20406;-73
2022/11/19 11:59:45;;;;;;;5.07;2.47;;;;;;;10.44;83.10;99759.06;5017668;28;20411;-73
2022/11/19 12:02:26;;;;;;;2.53;1.60;;;;;;;10.41;83.18;99754.97;5013140;28;20491;-73
2022/11/19 12:04:54;;;;;;;4.40;1.70;;;;;;;10.40;83.18;99756.06;5018955;28;20415;-74
2022/11/19 12:07:40;;;;;;;4.10;1.90;;;;;;;10.36;83.01;99754.13;5021678;28;20636;-73